createdAt,value
2022-08-25T00:00:21.377Z,0.88
2022-08-25T00:02:55.371Z,0.40
2022-08-25T00:05:29.009Z,0.60
2022-08-25T00:08:00.254Z,0.50
2022-08-25T00:10:29.112Z,0.50
2022-08-25T00:12:57.115Z,0.50
2022-08-25T00:15:25.259Z,0.45
2022-08-25T00:17:53.135Z,0.50
2022-08-25T00:20:21.363Z,0.45
2022-08-25T00:22:49.690Z,0.50
2022-08-25T00:25:18.755Z,0.60
2022-08-25T00:27:48.922Z,0.40
2022-08-25T00:30:17.656Z,0.40
2022-08-25T00:32:57.037Z,0.60
2022-08-25T00:35:28.606Z,0.60
2022-08-25T00:37:57.120Z,0.45
2022-08-25T00:40:27.683Z,0.60
2022-08-25T00:42:57.218Z,0.50
2022-08-25T00:45:25.816Z,0.40
2022-08-25T00:47:53.789Z,0.50
2022-08-25T00:50:26.617Z,0.30
2022-08-25T00:52:57.922Z,0.35
2022-08-25T00:55:28.109Z,0.60
2022-08-25T00:58:03.191Z,0.50
2022-08-25T01:00:37.222Z,0.60
2022-08-25T01:03:06.129Z,0.43
2022-08-25T01:05:35.177Z,0.50
2022-08-25T01:08:06.729Z,0.47
2022-08-25T01:10:37.024Z,0.40
2022-08-25T01:13:18.288Z,0.50
2022-08-25T01:15:52.944Z,0.30
2022-08-25T01:18:22.052Z,0.40
2022-08-25T01:20:57.935Z,0.30
2022-08-25T01:23:26.603Z,0.40
2022-08-25T01:26:01.597Z,0.43
2022-08-25T01:28:29.758Z,0.60
2022-08-25T01:30:58.053Z,0.57
2022-08-25T01:33:26.155Z,0.30
2022-08-25T01:35:54.783Z,1.40
2022-08-25T01:38:23.621Z,1.20
2022-08-25T01:40:51.284Z,0.63
2022-08-25T01:43:37.584Z,0.70
2022-08-25T01:46:05.879Z,1.00
2022-08-25T01:48:33.939Z,0.65
2022-08-25T01:51:01.844Z,0.70
2022-08-25T01:53:33.449Z,0.80
2022-08-25T01:56:11.720Z,0.80
2022-08-25T01:58:46.256Z,1.30
2022-08-25T02:03:48.623Z,0.80
2022-08-25T02:06:27.639Z,1.40
2022-08-25T02:08:59.688Z,0.90
2022-08-25T02:11:28.226Z,1.70
2022-08-25T02:13:56.549Z,0.98
2022-08-25T02:16:28.608Z,0.93
2022-08-25T02:18:57.840Z,0.90
2022-08-25T02:21:25.852Z,0.90
2022-08-25T02:23:57.124Z,1.05
2022-08-25T02:26:25.854Z,0.88
2022-08-25T02:28:54.220Z,0.95
2022-08-25T02:31:24.576Z,0.90
2022-08-25T02:33:53.384Z,1.15
2022-08-25T02:36:23.472Z,0.90
2022-08-25T02:38:51.680Z,0.70
2022-08-25T02:41:23.232Z,0.80
2022-08-25T02:44:01.163Z,0.90
2022-08-25T02:46:29.820Z,0.90
2022-08-25T02:48:58.263Z,1.02
2022-08-25T02:51:32.224Z,0.80
2022-08-25T02:54:02.656Z,1.00
2022-08-25T02:56:32.487Z,0.90
2022-08-25T02:59:01.339Z,1.00
2022-08-25T03:01:29.903Z,0.90
2022-08-25T03:03:58.022Z,1.17
2022-08-25T03:06:28.148Z,0.70
2022-08-25T03:08:56.385Z,1.17
2022-08-25T03:11:26.840Z,1.83
2022-08-25T03:13:56.717Z,0.85
2022-08-25T03:16:27.949Z,0.70
2022-08-25T03:18:57.543Z,0.73
2022-08-25T03:21:26.492Z,1.27
2022-08-25T03:23:54.930Z,0.60
2022-08-25T03:26:41.431Z,0.80
2022-08-25T03:29:10.789Z,0.68
2022-08-25T03:31:39.224Z,0.60
2022-08-25T03:34:07.323Z,0.60
2022-08-25T03:36:35.404Z,0.60
2022-08-25T03:39:03.797Z,0.50
2022-08-25T03:41:33.233Z,0.50
2022-08-25T03:44:04.209Z,0.50
2022-08-25T03:46:38.903Z,0.50
2022-08-25T03:49:10.461Z,0.50
2022-08-25T03:51:42.801Z,0.55
2022-08-25T03:54:11.964Z,0.50
2022-08-25T03:56:40.151Z,0.52
2022-08-25T03:59:10.150Z,0.60
2022-08-25T04:01:39.803Z,1.25
2022-08-25T04:04:09.382Z,0.55
2022-08-25T04:06:39.494Z,0.60
2022-08-25T04:09:08.262Z,0.80
2022-08-25T04:11:36.353Z,0.77
2022-08-25T04:14:06.198Z,0.80
2022-08-25T04:16:36.068Z,0.70
2022-08-25T04:19:07.641Z,0.60
2022-08-25T04:21:36.750Z,0.90
2022-08-25T04:24:05.631Z,0.60
2022-08-25T04:26:39.149Z,0.75
2022-08-25T04:29:10.118Z,0.50
2022-08-25T04:31:41.682Z,0.75
2022-08-25T04:34:28.364Z,0.70
2022-08-25T04:37:01.610Z,0.65
2022-08-25T04:39:29.899Z,0.50
2022-08-25T04:41:58.110Z,0.60
2022-08-25T04:44:26.394Z,0.70
2022-08-25T04:46:54.621Z,0.68
2022-08-25T04:49:23.016Z,0.80
2022-08-25T04:51:51.029Z,0.50
2022-08-25T04:54:22.202Z,0.80
2022-08-25T04:56:54.645Z,0.43
2022-08-25T04:59:30.130Z,0.70
2022-08-25T05:02:02.872Z,0.60
2022-08-25T05:04:32.776Z,0.70
2022-08-25T05:07:01.758Z,0.80
2022-08-25T05:09:32.271Z,1.08
2022-08-25T05:12:03.001Z,0.80
2022-08-25T05:14:32.387Z,0.80
2022-08-25T05:17:00.435Z,1.85
2022-08-25T05:19:28.518Z,1.00
2022-08-25T05:21:58.038Z,0.70
2022-08-25T05:24:28.256Z,0.90
2022-08-25T05:26:56.660Z,1.20
2022-08-25T05:29:24.945Z,1.08
2022-08-25T05:31:53.974Z,0.80
2022-08-25T05:34:22.575Z,1.35
2022-08-25T05:36:51.333Z,0.93
2022-08-25T05:39:19.361Z,0.95
2022-08-25T05:41:47.352Z,1.10
2022-08-25T05:44:19.075Z,1.42
2022-08-25T05:46:49.038Z,2.10
2022-08-25T05:49:17.444Z,1.13
2022-08-25T05:51:45.699Z,1.20
2022-08-25T05:54:13.698Z,0.93
2022-08-25T05:56:41.888Z,0.90
2022-08-25T05:59:10.127Z,0.80
2022-08-25T06:01:56.809Z,0.82
2022-08-25T06:04:25.148Z,0.93
2022-08-25T06:06:55.161Z,0.95
2022-08-25T06:09:30.455Z,1.45
2022-08-25T06:11:58.817Z,1.48
2022-08-25T06:14:27.673Z,1.98
2022-08-25T06:16:56.109Z,1.70
2022-08-25T06:19:25.342Z,2.42
2022-08-25T06:21:57.723Z,2.45
2022-08-25T06:24:28.640Z,2.13
2022-08-25T06:26:58.141Z,1.52
2022-08-25T06:29:27.542Z,2.53
2022-08-25T06:31:55.599Z,1.73
2022-08-25T06:34:25.828Z,1.95
2022-08-25T06:36:53.966Z,1.60
2022-08-25T06:39:22.512Z,1.27
2022-08-25T06:41:55.426Z,2.45
2022-08-25T06:44:28.188Z,2.13
2022-08-25T06:46:56.560Z,1.58
2022-08-25T06:49:30.103Z,1.60
2022-08-25T06:52:01.032Z,1.67
2022-08-25T06:54:28.973Z,1.30
2022-08-25T06:56:57.286Z,1.73
2022-08-25T06:59:26.081Z,1.77
2022-08-25T07:02:03.189Z,1.77
2022-08-25T07:04:32.912Z,1.45
2022-08-25T07:07:01.446Z,1.65
2022-08-25T07:09:29.415Z,1.73
2022-08-25T07:11:57.508Z,1.77
2022-08-25T07:14:25.563Z,1.90
2022-08-25T07:16:54.810Z,1.70
2022-08-25T07:19:22.789Z,1.98
2022-08-25T07:21:53.516Z,1.95
2022-08-25T07:24:22.065Z,2.90
2022-08-25T07:26:50.138Z,2.70
2022-08-25T07:29:31.763Z,2.80
2022-08-25T07:32:04.375Z,2.33
2022-08-25T07:34:51.810Z,3.33
2022-08-25T07:37:45.429Z,3.38
2022-08-25T07:40:12.296Z,3.15
2022-08-25T07:42:40.409Z,2.53
2022-08-25T07:45:10.432Z,4.00
2022-08-25T07:47:39.274Z,3.58
2022-08-25T07:50:10.837Z,2.42
2022-08-25T07:52:42.016Z,3.17
2022-08-25T07:55:11.344Z,2.50
2022-08-25T07:57:41.642Z,2.65
2022-08-25T08:00:15.155Z,3.50
2022-08-25T08:02:43.507Z,2.42
2022-08-25T08:05:13.840Z,2.25
2022-08-25T08:07:43.780Z,2.20
2022-08-25T08:13:04.336Z,2.50
2022-08-25T08:15:35.244Z,2.40
2022-08-25T08:18:04.178Z,3.00
2022-08-25T08:20:42.745Z,3.33
2022-08-25T08:23:12.583Z,3.20
2022-08-25T08:25:40.997Z,2.75
2022-08-25T08:28:10.940Z,3.13
2022-08-25T08:30:38.980Z,3.05
2022-08-25T08:33:11.708Z,2.33
2022-08-25T08:35:42.086Z,2.38
2022-08-25T08:38:18.501Z,2.53
2022-08-25T08:41:26.205Z,2.33
2022-08-25T08:46:45.176Z,1.65
2022-08-25T08:49:30.561Z,1.17
2022-08-25T08:52:02.757Z,1.50
2022-08-25T08:54:36.598Z,1.33
2022-08-25T08:57:20.382Z,1.38
2022-08-25T08:59:59.249Z,1.40
2022-08-25T09:02:51.360Z,1.10
2022-08-25T09:05:23.200Z,1.00
2022-08-25T09:08:10.532Z,1.15
2022-08-25T09:11:03.192Z,1.23
2022-08-25T09:14:02.623Z,1.10
2022-08-25T09:16:59.579Z,1.15
2022-08-25T09:19:57.360Z,0.82
2022-08-25T09:22:44.001Z,0.95
2022-08-25T09:25:54.033Z,0.98
2022-08-25T09:28:26.412Z,1.15
2022-08-25T09:31:09.842Z,1.67
2022-08-25T09:33:37.559Z,1.02
2022-08-25T09:36:06.190Z,1.00
2022-08-25T09:38:37.151Z,0.80
2022-08-25T09:41:07.577Z,0.70
2022-08-25T09:43:37.089Z,0.70
2022-08-25T09:46:23.835Z,0.70
2022-08-25T09:49:11.318Z,0.60
2022-08-25T09:51:42.973Z,0.47
2022-08-25T09:54:14.016Z,0.52
2022-08-25T09:56:57.211Z,0.43
2022-08-25T09:59:35.154Z,0.60
2022-08-25T10:02:29.635Z,0.50
2022-08-25T10:04:57.544Z,0.40
2022-08-25T10:07:30.384Z,0.65
2022-08-25T10:10:01.954Z,0.60
2022-08-25T10:12:42.618Z,0.47
2022-08-25T10:15:30.099Z,0.50
2022-08-25T10:18:26.019Z,0.50
2022-08-25T10:21:12.980Z,0.70
2022-08-25T10:23:53.602Z,0.70
2022-08-25T10:26:43.146Z,0.55
2022-08-25T10:29:35.029Z,0.57
2022-08-25T10:32:20.561Z,0.50
2022-08-25T10:34:56.572Z,0.50
2022-08-25T10:37:35.899Z,0.60
2022-08-25T10:40:22.138Z,0.43
2022-08-25T10:43:08.046Z,0.80
2022-08-25T10:45:44.003Z,0.40
2022-08-25T10:48:23.904Z,0.30
2022-08-25T10:51:20.542Z,0.38
2022-08-25T10:54:12.165Z,0.50
2022-08-25T10:56:43.701Z,0.90
2022-08-25T10:59:50.227Z,0.40
2022-08-25T11:05:24.488Z,0.40
2022-08-25T11:07:59.198Z,0.40
2022-08-25T11:12:59.968Z,0.32
2022-08-25T11:16:13.678Z,0.35
2022-08-25T11:18:49.597Z,0.30
2022-08-25T11:21:27.459Z,0.35
2022-08-25T11:24:13.797Z,0.50
2022-08-25T11:26:53.653Z,0.50
2022-08-25T11:29:24.734Z,0.30
2022-08-25T11:31:54.196Z,0.35
2022-08-25T11:34:23.054Z,0.40
2022-08-25T11:37:01.228Z,0.50
2022-08-25T11:40:07.477Z,0.40
2022-08-25T11:42:45.721Z,0.50
2022-08-25T11:45:19.068Z,0.30
2022-08-25T11:48:20.887Z,0.40
2022-08-25T11:51:09.525Z,0.70
2022-08-25T11:53:42.473Z,0.55
2022-08-25T11:56:33.193Z,0.43
2022-08-25T11:59:02.447Z,0.38
2022-08-25T12:01:43.290Z,0.40
2022-08-25T12:04:44.523Z,0.32
2022-08-25T12:07:20.058Z,0.30
2022-08-25T12:09:54.020Z,0.30
2022-08-25T12:12:44.081Z,0.30
2022-08-25T12:15:14.593Z,0.30
2022-08-25T12:17:42.217Z,0.30
2022-08-25T12:20:09.803Z,0.40
2022-08-25T12:22:37.370Z,0.30
2022-08-25T12:25:33.814Z,0.30
2022-08-25T12:28:42.728Z,0.35
2022-08-25T12:31:54.360Z,0.30
2022-08-25T12:34:51.189Z,0.55
2022-08-25T12:37:22.278Z,0.40
2022-08-25T12:39:49.759Z,0.50
2022-08-25T12:42:32.607Z,0.25
2022-08-25T12:45:25.661Z,0.50
2022-08-25T12:47:54.825Z,0.40
2022-08-25T12:50:34.013Z,0.50
2022-08-25T12:53:15.409Z,0.50
2022-08-25T12:55:50.231Z,0.60
2022-08-25T12:58:18.106Z,0.40
2022-08-25T13:01:35.597Z,0.40
2022-08-25T13:04:31.696Z,0.47
2022-08-25T13:07:07.847Z,0.30
2022-08-25T13:10:09.754Z,0.38
2022-08-25T13:12:43.093Z,0.43
2022-08-25T13:15:25.518Z,0.32
2022-08-25T13:17:53.033Z,0.25
2022-08-25T13:20:26.889Z,0.20
2022-08-25T13:22:59.849Z,0.20
2022-08-25T13:25:32.290Z,0.30
2022-08-25T13:28:03.813Z,0.40
2022-08-25T13:30:36.748Z,0.22
2022-08-25T13:33:20.113Z,0.20
2022-08-25T13:35:52.238Z,0.30
2022-08-25T13:38:21.226Z,0.20
2022-08-25T13:40:49.248Z,0.30
2022-08-25T13:43:17.314Z,0.30
2022-08-25T13:45:50.728Z,0.20
2022-08-25T13:48:34.824Z,0.20
2022-08-25T13:51:11.321Z,0.30
2022-08-25T13:53:40.757Z,0.10
2022-08-25T13:56:08.828Z,0.40
2022-08-25T13:58:45.601Z,0.20
2022-08-25T14:01:48.274Z,0.20
2022-08-25T14:04:32.197Z,0.28
2022-08-25T14:07:21.711Z,0.30
2022-08-25T14:09:53.638Z,0.30
2022-08-25T14:12:38.166Z,0.20
2022-08-25T14:15:09.622Z,0.20
2022-08-25T14:17:40.551Z,0.28
2022-08-25T14:20:27.383Z,0.20
2022-08-25T14:23:16.308Z,0.30
2022-08-25T14:25:48.026Z,0.20
2022-08-25T14:28:19.899Z,0.30
2022-08-25T14:30:52.947Z,0.22
2022-08-25T14:33:24.600Z,0.22
2022-08-25T14:35:55.098Z,0.20
2022-08-25T14:38:23.144Z,0.30
2022-08-25T14:40:51.421Z,0.30
2022-08-25T14:43:23.733Z,0.30
2022-08-25T14:46:02.581Z,0.35
2022-08-25T14:48:35.707Z,0.30
2022-08-25T14:51:05.051Z,0.40
2022-08-25T14:53:33.689Z,0.80
2022-08-25T14:56:05.393Z,0.60
2022-08-25T14:58:50.994Z,0.40
2022-08-25T15:01:28.874Z,0.30
2022-08-25T15:04:11.728Z,2.15
2022-08-25T15:06:43.485Z,1.48
2022-08-25T15:09:16.436Z,0.30
2022-08-25T15:11:50.930Z,0.30
2022-08-25T15:16:58.032Z,0.30
2022-08-25T15:19:29.637Z,0.22
2022-08-25T15:21:58.264Z,0.40
2022-08-25T15:24:28.577Z,0.30
2022-08-25T15:26:59.005Z,0.40
2022-08-25T15:29:30.316Z,0.30
2022-08-25T15:32:00.584Z,0.45
2022-08-25T15:34:29.675Z,0.50
2022-08-25T15:36:59.034Z,0.47
2022-08-25T15:39:27.470Z,0.50
2022-08-25T15:41:57.329Z,0.40
2022-08-25T15:44:29.394Z,0.30
2022-08-25T15:47:00.969Z,0.40
2022-08-25T15:49:29.680Z,0.70
2022-08-25T15:52:00.148Z,0.22
2022-08-25T15:54:28.826Z,0.40
2022-08-25T15:56:59.936Z,0.30
2022-08-25T15:59:29.173Z,0.30
2022-08-25T16:01:57.863Z,0.30
2022-08-25T16:04:29.104Z,0.50
2022-08-25T16:06:58.689Z,0.45
2022-08-25T16:09:26.754Z,0.40
2022-08-25T16:11:56.259Z,0.50
2022-08-25T16:14:25.187Z,0.50
2022-08-25T16:16:53.036Z,0.50
2022-08-25T16:19:20.904Z,0.70
2022-08-25T16:21:48.638Z,0.73
2022-08-25T16:24:17.911Z,0.50
2022-08-25T16:26:48.072Z,0.55
2022-08-25T16:29:17.739Z,0.60
2022-08-25T16:31:53.477Z,0.68
2022-08-25T16:34:24.721Z,0.45
2022-08-25T16:36:56.204Z,0.68
2022-08-25T16:39:24.728Z,0.77
2022-08-25T16:41:53.147Z,0.82
2022-08-25T16:44:22.734Z,0.88
2022-08-25T16:46:54.739Z,0.70
2022-08-25T16:49:24.307Z,1.17
2022-08-25T16:51:57.323Z,1.55
2022-08-25T16:54:45.687Z,2.05
2022-08-25T16:57:13.777Z,2.03
2022-08-25T16:59:43.796Z,2.45
2022-08-25T17:02:12.385Z,1.50
2022-08-25T17:04:41.063Z,2.05
2022-08-25T17:07:09.003Z,1.55
2022-08-25T17:09:37.143Z,2.28
2022-08-25T17:12:05.644Z,2.72
2022-08-25T17:14:33.787Z,2.55
2022-08-25T17:17:02.869Z,2.67
2022-08-25T17:19:34.877Z,2.20
2022-08-25T17:22:02.691Z,1.98
2022-08-25T17:24:31.716Z,3.80
2022-08-25T17:27:02.081Z,2.33
2022-08-25T17:29:30.708Z,2.25
2022-08-25T17:31:59.160Z,2.17
2022-08-25T17:34:27.942Z,1.73
2022-08-25T17:36:56.519Z,2.95
2022-08-25T17:39:25.973Z,3.28
2022-08-25T17:41:54.627Z,3.25
2022-08-25T17:44:25.661Z,3.15
2022-08-25T17:46:53.838Z,2.03
2022-08-25T17:49:23.104Z,2.65
2022-08-25T17:51:51.131Z,2.75
2022-08-25T17:54:19.789Z,3.03
2022-08-25T17:56:48.889Z,3.17
2022-08-25T17:59:18.957Z,2.90
2022-08-25T18:01:47.910Z,2.53
2022-08-25T18:04:17.143Z,3.47
2022-08-25T18:06:48.774Z,3.30
2022-08-25T18:09:17.647Z,3.50
2022-08-25T18:11:46.119Z,2.88
2022-08-25T18:14:16.790Z,2.72
2022-08-25T18:16:45.689Z,2.08
2022-08-25T18:19:14.686Z,2.53
2022-08-25T18:21:43.477Z,3.00
2022-08-25T18:24:11.817Z,2.63
2022-08-25T18:26:41.554Z,2.90
2022-08-25T18:29:13.345Z,2.10
2022-08-25T18:31:42.650Z,3.63
2022-08-25T18:34:11.738Z,2.00
2022-08-25T18:36:41.577Z,3.03
2022-08-25T18:39:30.507Z,2.22
2022-08-25T18:42:03.832Z,2.53
2022-08-25T18:44:33.019Z,2.97
2022-08-25T18:47:07.608Z,2.67
2022-08-25T18:49:37.717Z,3.53
2022-08-25T18:52:05.953Z,3.85
2022-08-25T18:54:35.892Z,3.60
2022-08-25T18:57:04.604Z,2.55
2022-08-25T18:59:36.625Z,2.95
2022-08-25T19:02:05.032Z,2.75
2022-08-25T19:04:33.674Z,1.88
2022-08-25T19:07:03.028Z,2.65
2022-08-25T19:09:34.140Z,2.13
2022-08-25T19:12:02.362Z,1.80
2022-08-25T19:14:30.929Z,2.30
2022-08-25T19:16:58.929Z,2.33
2022-08-25T19:19:30.440Z,2.47
2022-08-25T19:22:00.090Z,2.38
2022-08-25T19:24:28.868Z,2.85
2022-08-25T19:26:58.189Z,2.90
2022-08-25T19:29:26.839Z,3.13
2022-08-25T19:32:01.229Z,2.42
2022-08-25T19:34:33.696Z,2.45
2022-08-25T19:37:04.384Z,2.65
2022-08-25T19:39:33.664Z,2.00
2022-08-25T19:42:01.394Z,2.50
2022-08-25T19:44:31.216Z,1.88
2022-08-25T19:46:59.177Z,2.75
2022-08-25T19:49:31.664Z,2.80
2022-08-25T19:52:06.030Z,3.00
2022-08-25T19:54:44.271Z,2.75
2022-08-25T19:57:28.231Z,3.10
2022-08-25T20:00:06.057Z,3.20
2022-08-25T20:02:39.705Z,2.40
2022-08-25T20:05:08.063Z,3.13
2022-08-25T20:07:36.250Z,2.80
2022-08-25T20:10:06.607Z,2.72
2022-08-25T20:12:35.714Z,2.97
2022-08-25T20:15:09.442Z,3.17
2022-08-25T20:17:37.335Z,2.60
2022-08-25T20:20:13.722Z,2.65
2022-08-25T20:22:41.627Z,2.53
2022-08-25T20:25:20.399Z,2.78
2022-08-25T20:27:54.229Z,2.53
2022-08-25T20:30:27.983Z,1.88
2022-08-25T20:32:57.637Z,2.77
2022-08-25T20:35:29.254Z,2.20
2022-08-25T20:37:58.619Z,1.98
2022-08-25T20:40:29.323Z,2.35
2022-08-25T20:43:04.602Z,1.98
2022-08-25T20:45:34.810Z,1.85
2022-08-25T20:48:02.793Z,2.53
2022-08-25T20:50:33.910Z,1.33
2022-08-25T20:53:02.098Z,1.65
2022-08-25T20:55:29.969Z,1.42
2022-08-25T20:57:58.591Z,1.63
2022-08-25T21:00:26.672Z,1.67
2022-08-25T21:02:55.271Z,1.58
2022-08-25T21:05:23.184Z,1.80
2022-08-25T21:07:51.623Z,1.20
2022-08-25T21:10:19.553Z,1.40
2022-08-25T21:12:53.291Z,1.30
2022-08-25T21:15:21.381Z,1.40
2022-08-25T21:17:54.556Z,1.33
2022-08-25T21:20:24.215Z,0.82
2022-08-25T21:22:54.519Z,1.05
2022-08-25T21:25:22.984Z,1.10
2022-08-25T21:27:50.730Z,0.90
2022-08-25T21:30:18.671Z,1.05
2022-08-25T21:32:52.775Z,1.33
2022-08-25T21:35:23.187Z,1.27
2022-08-25T21:37:53.350Z,1.25
2022-08-25T21:40:23.349Z,1.00
2022-08-25T21:42:52.484Z,1.55
2022-08-25T21:45:21.880Z,1.08
2022-08-25T21:47:51.933Z,1.00
2022-08-25T21:50:20.673Z,1.17
2022-08-25T21:52:48.367Z,1.75
2022-08-25T21:55:23.293Z,0.90
2022-08-25T21:57:51.453Z,1.02
2022-08-25T22:00:21.409Z,0.80
2022-08-25T22:02:49.758Z,1.15
2022-08-25T22:05:17.762Z,0.80
2022-08-25T22:07:45.604Z,1.13
2022-08-25T22:10:16.801Z,1.05
2022-08-25T22:12:47.645Z,1.52
2022-08-25T22:15:17.985Z,0.98
2022-08-25T22:17:48.195Z,0.90
2022-08-25T22:20:17.818Z,0.80
2022-08-25T22:22:45.653Z,0.77
2022-08-25T22:25:14.210Z,0.70
2022-08-25T22:27:42.628Z,1.67
2022-08-25T22:30:11.170Z,1.02
2022-08-25T22:32:39.006Z,0.80
2022-08-25T22:35:07.164Z,1.75
2022-08-25T22:37:35.737Z,1.13
2022-08-25T22:40:04.455Z,0.90
2022-08-25T22:42:32.353Z,0.80
2022-08-25T22:45:00.080Z,1.00
2022-08-25T22:47:28.089Z,0.70
2022-08-25T22:49:59.481Z,0.88
2022-08-25T22:52:33.722Z,0.88
2022-08-25T22:55:03.185Z,0.90
2022-08-25T22:57:31.153Z,1.00
2022-08-25T22:59:59.461Z,0.90
2022-08-25T23:02:30.285Z,0.95
2022-08-25T23:05:00.913Z,0.95
2022-08-25T23:07:29.475Z,0.90
2022-08-25T23:10:00.213Z,1.10
2022-08-25T23:12:28.650Z,1.15
2022-08-25T23:14:56.542Z,1.05
2022-08-25T23:17:24.841Z,1.17
2022-08-25T23:19:52.632Z,1.00
2022-08-25T23:22:20.533Z,1.23
2022-08-25T23:24:53.688Z,1.40
2022-08-25T23:27:22.786Z,1.50
2022-08-25T23:29:50.934Z,1.35
2022-08-25T23:32:19.343Z,1.30
2022-08-25T23:34:47.605Z,0.95
2022-08-25T23:37:18.793Z,1.40
2022-08-25T23:39:49.823Z,1.10
2022-08-25T23:42:19.669Z,1.10
2022-08-25T23:44:48.356Z,1.30
2022-08-25T23:47:16.930Z,1.33
2022-08-25T23:49:45.291Z,1.45
2022-08-25T23:52:17.441Z,1.67
2022-08-25T23:54:47.127Z,1.42
2022-08-25T23:57:15.372Z,1.52
2022-08-25T23:59:43.494Z,1.38
